Time;durP1;ratioP1;P1;durP2;ratioP2;P2;SDS_P1;SDS_P2;PMS_P1;PMS_P2;Temp;Humidity;BMP_temperature;BMP_pressure;BME280_temperature;BME280_humidity;BME280_pressure;Samples;Min_cycle;Max_cycle;Signal;HPM_P1;HPM_P2
2023/01/14 00:01:01;;;;;;;;;;;21.50;99.90;;;;;;5012813;28;20383;-73
2023/01/14 00:03:28;;;;;;;;;;;21.60;99.90;;;;;;5012719;28;19972;-67
2023/01/14 00:05:58;;;;;;;;;;;21.70;99.90;;;;;;5012911;28;19916;-65
2023/01/14 00:08:25;;;;;;;;;;;21.70;99.90;;;;;;5012959;28;19913;-66
2023/01/14 00:10:52;;;;;;;;;;;21.70;99.90;;;;;;5012450;28;19924;-68
2023/01/14 00:13:19;;;;;;;;;;;21.70;99.90;;;;;;5012738;28;20265;-65
2023/01/14 00:15:55;;;;;;;;;;;21.90;99.90;;;;;;5012674;28;19996;-69
2023/01/14 00:18:22;;;;;;;;;;;22.00;99.90;;;;;;5012818;28;19964;-68
2023/01/14 00:20:58;;;;;;;;;;;22.00;99.90;;;;;;5016027;28;19916;-66
2023/01/14 00:23:25;;;;;;;;;;;22.00;99.90;;;;;;5016351;28;19918;-65
2023/01/14 00:25:52;;;;;;;;;;;22.00;99.90;;;;;;5016950;28;19914;-66
2023/01/14 00:28:19;;;;;;;;;;;22.20;99.90;;;;;;5016442;28;20356;-79
2023/01/14 00:30:45;;;;;;;;;;;22.30;99.90;;;;;;5016148;28;19928;-67
2023/01/14 00:33:12;;;;;;;;;;;22.30;99.90;;;;;;5016614;28;19972;-68
2023/01/14 00:35:39;;;;;;;;;;;22.30;99.90;;;;;;5016289;28;19913;-66
2023/01/14 00:38:05;;;;;;;;;;;22.30;99.90;;;;;;5016473;28;19944;-66
2023/01/14 00:40:32;;;;;;;;;;;22.40;99.90;;;;;;5016639;28;19909;-66
2023/01/14 00:42:58;;;;;;;;;;;22.60;99.90;;;;;;5015928;28;20352;-68
2023/01/14 00:45:26;;;;;;;;;;;22.70;99.90;;;;;;5015993;28;19996;-65
2023/01/14 00:47:53;;;;;;;;;;;22.90;99.90;;;;;;5016130;28;19913;-65
2023/01/14 00:50:19;;;;;;;;;;;23.00;99.90;;;;;;5016427;28;19917;-65
2023/01/14 00:52:46;;;;;;;;;;;23.20;99.90;;;;;;5015706;28;19917;-65
2023/01/14 00:55:12;;;;;;;;;;;23.20;99.90;;;;;;5015926;28;19917;-65
2023/01/14 00:57:39;;;;;;;;;;;23.10;99.90;;;;;;5016067;28;19917;-65
2023/01/14 01:00:06;;;;;;;;;;;23.00;99.90;;;;;;5016151;28;19992;-76
2023/01/14 01:02:33;;;;;;;;;;;22.90;99.90;;;;;;5015786;28;19929;-66
2023/01/14 01:04:59;;;;;;;;;;;22.80;99.90;;;;;;5016057;28;19917;-66
2023/01/14 01:07:26;;;;;;;;;;;22.80;99.90;;;;;;5015970;28;19909;-65
2023/01/14 01:09:53;;;;;;;;;;;22.90;99.90;;;;;;5016034;28;19931;-66
2023/01/14 01:12:20;;;;;;;;;;;23.00;99.90;;;;;;5015334;28;19910;-66
2023/01/14 01:14:47;;;;;;;;;;;23.10;99.90;;;;;;5015655;28;19963;-68
2023/01/14 01:17:14;;;;;;;;;;;23.00;99.90;;;;;;5015697;28;19909;-76
2023/01/14 01:19:41;;;;;;;;;;;23.00;99.90;;;;;;5015833;28;20031;-66
2023/01/14 01:22:07;;;;;;;;;;;23.10;99.90;;;;;;5015281;28;19909;-77
2023/01/14 01:24:34;;;;;;;;;;;23.30;99.90;;;;;;5015331;28;20217;-70
2023/01/14 01:27:01;;;;;;;;;;;23.40;99.90;;;;;;5015548;28;19910;-68
2023/01/14 01:29:27;;;;;;;;;;;23.60;99.90;;;;;;5015035;28;19909;-66
2023/01/14 01:31:54;;;;;;;;;;;24.00;99.90;;;;;;5014891;28;19917;-66
2023/01/14 01:34:21;;;;;;;;;;;24.40;99.90;;;;;;5015277;28;19910;-69
2023/01/14 01:36:47;;;;;;;;;;;24.90;99.90;;;;;;5015098;28;19917;-68
2023/01/14 01:39:14;;;;;;;;;;;25.50;99.90;;;;;;5014926;28;19992;-70
2023/01/14 01:41:40;;;;;;;;;;;25.60;99.90;;;;;;5014749;28;20011;-65
2023/01/14 01:44:13;;;;;;;;;;;25.50;99.90;;;;;;5015046;28;20356;-70
2023/01/14 01:46:40;;;;;;;;;;;25.60;99.90;;;;;;5015447;28;20382;-66
2023/01/14 01:49:10;;;;;;;;;;;25.70;99.90;;;;;;5015155;28;20000;-65
2023/01/14 01:51:43;;;;;;;;;;;25.40;99.90;;;;;;5014349;28;19910;-65
2023/01/14 01:54:11;;;;;;;;;;;25.00;99.90;;;;;;5014951;28;19910;-69
2023/01/14 01:56:39;;;;;;;;;;;24.80;99.90;;;;;;5014629;28;19985;-65
2023/01/14 01:59:08;;;;;;;;;;;25.00;99.90;;;;;;5014594;28;20004;-66
2023/01/14 02:01:35;;;;;;;;;;;25.00;99.90;;;;;;5014340;28;19909;-64
2023/01/14 02:04:02;;;;;;;;;;;25.00;99.90;;;;;;5014440;28;19917;-65
2023/01/14 02:06:29;;;;;;;;;;;25.00;99.90;;;;;;5014849;28;19915;-66
2023/01/14 02:08:56;;;;;;;;;;;25.00;99.90;;;;;;5014489;28;19992;-65
2023/01/14 02:11:46;;;;;;;;;;;25.00;99.90;;;;;;5013731;28;19947;-63
2023/01/14 02:14:31;;;;;;;;;;;24.90;99.90;;;;;;5014606;28;19913;-64
2023/01/14 02:16:58;;;;;;;;;;;24.80;99.90;;;;;;5014494;28;19909;-68
2023/01/14 02:19:42;;;;;;;;;;;24.80;99.90;;;;;;5014435;28;19937;-67
2023/01/14 02:22:09;;;;;;;;;;;24.80;99.90;;;;;;5014086;28;19909;-66
2023/01/14 02:24:36;;;;;;;;;;;24.80;99.90;;;;;;5014185;28;19913;-64
2023/01/14 02:27:21;;;;;;;;;;;24.80;99.90;;;;;;5014267;28;19968;-67
2023/01/14 02:29:53;;;;;;;;;;;24.70;99.90;;;;;;5014234;28;19953;-65
2023/01/14 02:32:26;;;;;;;;;;;24.80;99.90;;;;;;5013946;28;19916;-65
2023/01/14 02:34:55;;;;;;;;;;;24.90;99.90;;;;;;5014147;28;19914;-65
2023/01/14 02:37:25;;;;;;;;;;;25.10;99.90;;;;;;5014119;28;19921;-66
2023/01/14 02:39:59;;;;;;;;;;;25.00;99.90;;;;;;5014131;28;19914;-65
2023/01/14 02:45:15;;;;;;;;;;;25.10;99.90;;;;;;5014320;28;20348;-65
2023/01/14 02:47:42;;;;;;;;;;;25.00;99.90;;;;;;5014426;28;19909;-66
2023/01/14 02:50:09;;;;;;;;;;;24.90;99.90;;;;;;5014982;28;19936;-65
2023/01/14 02:52:36;;;;;;;;;;;24.90;99.90;;;;;;5023961;28;20268;-70
2023/01/14 02:55:23;;;;;;;;;;;24.90;99.90;;;;;;5026499;28;19918;-71
2023/01/14 02:58:02;;;;;;;;;;;24.80;99.90;;;;;;5026045;28;19909;-71
2023/01/14 03:00:34;;;;;;;;;;;24.80;99.90;;;;;;5025437;28;19909;-66
2023/01/14 03:03:17;;;;;;;;;;;25.00;99.90;;;;;;5027247;28;20317;-68
2023/01/14 03:05:50;;;;;;;;;;;25.10;99.90;;;;;;5025973;28;19976;-66
2023/01/14 03:08:20;;;;;;;;;;;25.00;99.90;;;;;;5026095;28;19909;-68
2023/01/14 03:10:49;;;;;;;;;;;25.00;99.90;;;;;;5020472;28;19909;-69
2023/01/14 03:13:16;;;;;;;;;;;24.90;99.90;;;;;;5017428;28;19916;-67
2023/01/14 03:16:02;;;;;;;;;;;24.80;99.90;;;;;;5014977;28;19909;-78
2023/01/14 03:18:32;;;;;;;;;;;24.80;99.90;;;;;;5014058;28;19909;-73
2023/01/14 03:21:03;;;;;;;;;;;24.90;99.90;;;;;;5015013;28;19910;-70
2023/01/14 03:23:35;;;;;;;;;;;25.00;99.90;;;;;;5015632;28;19917;-71
2023/01/14 03:26:03;;;;;;;;;;;24.90;99.90;;;;;;5019702;28;19956;-65
2023/01/14 03:28:47;;;;;;;;;;;24.80;99.90;;;;;;5015961;28;19909;-71
2023/01/14 03:31:15;;;;;;;;;;;24.90;99.90;;;;;;5015369;28;19916;-72
2023/01/14 03:33:46;;;;;;;;;;;24.90;99.90;;;;;;5014376;28;19909;-72
2023/01/14 03:36:13;;;;;;;;;;;24.80;99.90;;;;;;5013866;28;19909;-66
2023/01/14 03:38:55;;;;;;;;;;;24.90;99.90;;;;;;5014549;28;19909;-68
2023/01/14 03:44:13;;;;;;;;;;;24.80;99.90;;;;;;5013133;28;19925;-78
2023/01/14 03:46:40;;;;;;;;;;;24.80;99.90;;;;;;5013373;28;19910;-74
2023/01/14 03:49:07;;;;;;;;;;;24.80;99.90;;;;;;5013284;28;19932;-67
2023/01/14 03:51:38;;;;;;;;;;;24.70;99.90;;;;;;5012621;28;20019;-78
2023/01/14 03:54:08;;;;;;;;;;;24.60;99.90;;;;;;5013436;28;20339;-76
2023/01/14 03:56:44;;;;;;;;;;;24.70;99.90;;;;;;5013103;28;19915;-69
2023/01/14 03:59:13;;;;;;;;;;;24.80;99.90;;;;;;5013585;28;19945;-76
2023/01/14 04:01:44;;;;;;;;;;;24.80;99.90;;;;;;5012797;28;20019;-79
2023/01/14 04:04:11;;;;;;;;;;;24.90;99.90;;;;;;5013293;28;19960;-78
2023/01/14 04:06:38;;;;;;;;;;;24.90;99.90;;;;;;5013316;28;19917;-69
2023/01/14 04:09:06;;;;;;;;;;;24.90;99.90;;;;;;5013248;28;20020;-75
2023/01/14 04:11:32;;;;;;;;;;;24.90;99.90;;;;;;5012540;28;19913;-68
2023/01/14 04:16:44;;;;;;;;;;;24.70;99.90;;;;;;5013541;28;19921;-72
2023/01/14 04:19:11;;;;;;;;;;;24.70;99.90;;;;;;5013094;28;20280;-79
2023/01/14 04:21:37;;;;;;;;;;;24.80;99.90;;;;;;5012894;28;19910;-73
2023/01/14 04:24:04;;;;;;;;;;;24.80;99.90;;;;;;5013145;28;19924;-79
2023/01/14 04:26:31;;;;;;;;;;;24.80;99.90;;;;;;5013026;28;19910;-78
2023/01/14 04:28:57;;;;;;;;;;;24.80;99.90;;;;;;5013698;28;20510;-74
2023/01/14 04:31:24;;;;;;;;;;;25.00;99.90;;;;;;5012651;28;20254;-77
2023/01/14 04:33:51;;;;;;;;;;;25.00;99.90;;;;;;5012946;28;19910;-72
2023/01/14 04:36:18;;;;;;;;;;;24.90;99.90;;;;;;5012645;28;20020;-69
2023/01/14 04:38:45;;;;;;;;;;;24.80;99.90;;;;;;5013173;28;20353;-79
2023/01/14 04:42:26;;;;;;;;;;;24.80;99.90;;;;;;5012479;28;19910;-72
2023/01/14 04:43:59;;;;;;;;;;;24.90;99.90;;;;;;5012672;28;20395;-74
2023/01/14 04:46:26;;;;;;;;;;;24.80;99.90;;;;;;5012649;28;19917;-77
2023/01/14 04:48:52;;;;;;;;;;;24.90;99.90;;;;;;5012553;28;19920;-71
2023/01/14 04:51:19;;;;;;;;;;;24.90;99.90;;;;;;5012302;28;19917;-72
2023/01/14 04:53:46;;;;;;;;;;;24.70;99.90;;;;;;5012648;28;19945;-78
2023/01/14 04:56:13;;;;;;;;;;;24.70;99.90;;;;;;5012573;28;19910;-70
2023/01/14 04:58:40;;;;;;;;;;;24.70;99.90;;;;;;5012494;28;19910;-63
2023/01/14 05:01:06;;;;;;;;;;;24.70;99.90;;;;;;5012348;28;20011;-78
2023/01/14 05:03:33;;;;;;;;;;;24.70;99.90;;;;;;5012360;28;20291;-76
2023/01/14 05:05:59;;;;;;;;;;;24.90;99.90;;;;;;5014659;28;20288;-77
2023/01/14 05:08:26;;;;;;;;;;;24.90;99.90;;;;;;5016171;28;19916;-69
2023/01/14 05:10:53;;;;;;;;;;;24.80;99.90;;;;;;5015741;28;19909;-69
2023/01/14 05:13:19;;;;;;;;;;;24.80;99.90;;;;;;5015563;28;19910;-79
2023/01/14 05:15:46;;;;;;;;;;;24.80;99.90;;;;;;5015884;28;19916;-77
2023/01/14 05:18:14;;;;;;;;;;;24.80;99.90;;;;;;5016111;28;19913;-73
2023/01/14 05:20:41;;;;;;;;;;;24.70;99.90;;;;;;5015449;28;20442;-80
2023/01/14 05:23:12;;;;;;;;;;;24.70;99.90;;;;;;5015625;28;20229;-73
2023/01/14 05:25:39;;;;;;;;;;;24.60;99.90;;;;;;5015670;28;20287;-76
2023/01/14 05:28:07;;;;;;;;;;;24.70;99.90;;;;;;5015676;28;19933;-70
2023/01/14 05:30:34;;;;;;;;;;;24.70;99.90;;;;;;5015424;28;19914;-74
2023/01/14 05:33:00;;;;;;;;;;;24.60;99.90;;;;;;5015638;28;19910;-77
2023/01/14 05:35:27;;;;;;;;;;;24.50;99.90;;;;;;5015372;28;19909;-70
2023/01/14 05:37:54;;;;;;;;;;;24.40;99.90;;;;;;5015301;28;19921;-75
2023/01/14 05:40:20;;;;;;;;;;;24.40;99.90;;;;;;5014817;28;19910;-76
2023/01/14 05:45:38;;;;;;;;;;;24.60;99.90;;;;;;5015296;28;19960;-76
2023/01/14 05:48:05;;;;;;;;;;;24.60;99.90;;;;;;5015311;28;19909;-79
2023/01/14 05:50:32;;;;;;;;;;;24.60;99.90;;;;;;5015032;28;19909;-78
2023/01/14 05:52:58;;;;;;;;;;;24.50;99.90;;;;;;5015279;28;19909;-78
2023/01/14 05:55:25;;;;;;;;;;;24.50;99.90;;;;;;5014967;28;20003;-76
2023/01/14 05:57:52;;;;;;;;;;;24.50;99.90;;;;;;5015275;28;19913;-77
2023/01/14 06:08:33;;;;;;;;;;;24.30;99.90;;;;;;5015007;28;19921;-67
2023/01/14 06:11:00;;;;;;;;;;;24.20;99.90;;;;;;5014298;28;19953;-77
2023/01/14 06:13:27;;;;;;;;;;;24.20;99.90;;;;;;5014623;28;20252;-72
2023/01/14 06:15:55;;;;;;;;;;;24.30;99.90;;;;;;5014497;28;19913;-72
2023/01/14 06:18:23;;;;;;;;;;;24.40;99.90;;;;;;5014331;28;19989;-78
2023/01/14 06:20:50;;;;;;;;;;;24.40;99.90;;;;;;5014313;28;19931;-79
2023/01/14 06:23:18;;;;;;;;;;;24.30;99.90;;;;;;5014386;28;19917;-73
2023/01/14 06:25:46;;;;;;;;;;;24.30;99.90;;;;;;5014376;28;19910;-68
2023/01/14 06:28:13;;;;;;;;;;;24.20;99.90;;;;;;5014575;28;19909;-78
2023/01/14 06:30:40;;;;;;;;;;;24.10;99.90;;;;;;5014267;28;19910;-71
2023/01/14 06:33:07;;;;;;;;;;;24.20;99.90;;;;;;5014353;28;19909;-77
2023/01/14 06:35:34;;;;;;;;;;;24.30;99.90;;;;;;5014257;28;19913;-74
2023/01/14 06:38:01;;;;;;;;;;;24.20;99.90;;;;;;5013904;28;19928;-74
2023/01/14 06:40:27;;;;;;;;;;;24.20;99.90;;;;;;5014059;28;19909;-73
2023/01/14 06:42:54;;;;;;;;;;;24.10;99.90;;;;;;5014092;28;19949;-69
2023/01/14 06:45:22;;;;;;;;;;;24.10;99.90;;;;;;5014018;28;20319;-73
2023/01/14 06:47:48;;;;;;;;;;;24.10;99.90;;;;;;5014008;28;20458;-75
2023/01/14 06:50:18;;;;;;;;;;;24.10;99.90;;;;;;5011284;28;19910;-77
2023/01/14 06:52:44;;;;;;;;;;;24.00;99.90;;;;;;5011780;28;20108;-74
2023/01/14 06:55:11;;;;;;;;;;;23.90;99.90;;;;;;5011693;28;20344;-74
2023/01/14 06:57:38;;;;;;;;;;;23.80;99.90;;;;;;5011776;28;19913;-73
2023/01/14 07:00:05;;;;;;;;;;;23.70;99.90;;;;;;5011499;28;20291;-72
2023/01/14 07:02:32;;;;;;;;;;;23.70;99.90;;;;;;5011537;28;19918;-78
2023/01/14 07:04:59;;;;;;;;;;;23.70;99.90;;;;;;5011697;28;20327;-75
2023/01/14 07:07:25;;;;;;;;;;;23.70;99.90;;;;;;5011452;28;19910;-75
2023/01/14 07:09:52;;;;;;;;;;;23.80;99.90;;;;;;5011645;28;19914;-71
2023/01/14 07:12:19;;;;;;;;;;;23.80;99.90;;;;;;5011576;28;19913;-79
2023/01/14 07:14:45;;;;;;;;;;;23.80;99.90;;;;;;5011798;28;19987;-74
2023/01/14 07:17:12;;;;;;;;;;;23.80;99.90;;;;;;5011509;28;19945;-71
2023/01/14 07:19:38;;;;;;;;;;;23.70;99.90;;;;;;5011474;28;20319;-78
2023/01/14 07:22:05;;;;;;;;;;;23.70;99.90;;;;;;5011318;28;20390;-68
2023/01/14 07:24:37;;;;;;;;;;;23.70;99.90;;;;;;5011353;28;19917;-70
2023/01/14 07:27:05;;;;;;;;;;;23.70;99.90;;;;;;5011687;28;19992;-73
2023/01/14 07:29:31;;;;;;;;;;;23.60;99.90;;;;;;5010499;28;19945;-84
2023/01/14 07:31:58;;;;;;;;;;;23.60;99.90;;;;;;5011105;28;19909;-74
2023/01/14 07:34:25;;;;;;;;;;;23.50;99.90;;;;;;5011420;28;19910;-69
2023/01/14 07:36:51;;;;;;;;;;;23.50;99.90;;;;;;5011417;28;19948;-73
2023/01/14 07:39:18;;;;;;;;;;;23.40;99.90;;;;;;5011203;28;19910;-76
2023/01/14 07:41:45;;;;;;;;;;;23.40;99.90;;;;;;5010842;28;19975;-73
2023/01/14 07:44:11;;;;;;;;;;;23.40;99.90;;;;;;5011211;28;19961;-72
2023/01/14 07:46:38;;;;;;;;;;;23.40;99.90;;;;;;5011259;28;19910;-71
2023/01/14 07:49:05;;;;;;;;;;;23.40;99.90;;;;;;5011348;28;19910;-78
2023/01/14 07:51:31;;;;;;;;;;;23.40;99.90;;;;;;5010757;28;19914;-66
2023/01/14 07:53:58;;;;;;;;;;;23.30;99.90;;;;;;5011257;28;19909;-75
2023/01/14 07:56:25;;;;;;;;;;;23.30;99.90;;;;;;5010958;28;20279;-68
2023/01/14 07:58:51;;;;;;;;;;;23.30;99.90;;;;;;5011154;28;19913;-71
2023/01/14 08:01:18;;;;;;;;;;;23.20;99.90;;;;;;5010511;28;20000;-79
2023/01/14 08:03:44;;;;;;;;;;;23.20;99.90;;;;;;5011306;28;20042;-72
2023/01/14 08:06:11;;;;;;;;;;;23.10;99.90;;;;;;5013317;28;19910;-72
2023/01/14 08:08:38;;;;;;;;;;;23.20;99.90;;;;;;5013100;28;19917;-79
2023/01/14 08:11:04;;;;;;;;;;;23.20;99.90;;;;;;5012943;28;19909;-79
2023/01/14 08:13:31;;;;;;;;;;;23.10;99.90;;;;;;5012997;28;19915;-76
2023/01/14 08:15:59;;;;;;;;;;;23.00;99.90;;;;;;5012910;28;19916;-80
2023/01/14 08:18:26;;;;;;;;;;;23.10;99.90;;;;;;5013106;28;19965;-76
2023/01/14 08:20:56;;;;;;;;;;;23.10;99.90;;;;;;5012583;28;20001;-75
2023/01/14 08:23:23;;;;;;;;;;;23.00;99.90;;;;;;5012648;28;19991;-75
2023/01/14 08:25:50;;;;;;;;;;;23.00;99.90;;;;;;5012929;28;20368;-78
2023/01/14 08:28:17;;;;;;;;;;;23.00;99.90;;;;;;5012994;28;20447;-77
2023/01/14 08:30:43;;;;;;;;;;;23.00;99.90;;;;;;5011329;28;19914;-73
2023/01/14 08:33:10;;;;;;;;;;;22.90;99.90;;;;;;5013163;28;19909;-76
2023/01/14 08:35:40;;;;;;;;;;;22.90;99.90;;;;;;5012920;28;19909;-72
2023/01/14 08:38:07;;;;;;;;;;;22.90;99.90;;;;;;5013095;28;19921;-78
2023/01/14 08:40:34;;;;;;;;;;;22.90;99.90;;;;;;5014144;28;20280;-79
2023/01/14 08:43:01;;;;;;;;;;;22.90;99.90;;;;;;5016746;28;19933;-75
2023/01/14 08:45:27;;;;;;;;;;;22.90;99.90;;;;;;5015077;28;19909;-78
2023/01/14 08:47:54;;;;;;;;;;;22.80;99.90;;;;;;5016630;28;19909;-77
2023/01/14 08:50:21;;;;;;;;;;;22.80;99.90;;;;;;5016190;28;20388;-79
2023/01/14 08:52:47;;;;;;;;;;;22.80;99.90;;;;;;5016515;28;19909;-77
2023/01/14 08:55:14;;;;;;;;;;;22.80;99.90;;;;;;5016404;28;19917;-78
2023/01/14 08:57:41;;;;;;;;;;;22.80;99.90;;;;;;5016703;28;20272;-80
2023/01/14 09:00:08;;;;;;;;;;;22.70;99.90;;;;;;5016250;28;19913;-78
2023/01/14 09:02:34;;;;;;;;;;;22.70;99.90;;;;;;5016470;28;19917;-76
2023/01/14 09:05:01;;;;;;;;;;;22.70;99.90;;;;;;5016212;28;19913;-75
2023/01/14 09:18:27;;;;;;;;;;;22.60;99.90;;;;;;5016103;28;19933;-80
2023/01/14 09:20:53;;;;;;;;;;;22.60;99.90;;;;;;5015835;28;19917;-81
2023/01/14 09:23:20;;;;;;;;;;;22.60;99.90;;;;;;5015614;28;19921;-80
2023/01/14 09:25:47;;;;;;;;;;;22.60;99.90;;;;;;5016130;28;19910;-80
2023/01/14 09:28:13;;;;;;;;;;;22.60;99.90;;;;;;5015954;28;20390;-75
2023/01/14 09:30:40;;;;;;;;;;;22.60;99.90;;;;;;5015365;28;19988;-81
2023/01/14 09:33:07;;;;;;;;;;;22.60;99.90;;;;;;5015561;28;19917;-75
2023/01/14 09:35:33;;;;;;;;;;;22.60;99.90;;;;;;5015559;28;19920;-79
2023/01/14 09:38:00;;;;;;;;;;;22.50;99.90;;;;;;5015123;28;19925;-77
2023/01/14 09:40:27;;;;;;;;;;;22.50;99.90;;;;;;5015624;28;20386;-81
2023/01/14 09:42:53;;;;;;;;;;;22.50;99.90;;;;;;5015797;28;20277;-74
2023/01/14 09:45:25;;;;;;;;;;;22.50;99.90;;;;;;5015572;28;19910;-80
2023/01/14 09:47:52;;;;;;;;;;;22.50;99.90;;;;;;5015550;28;20291;-79
2023/01/14 09:50:27;;;;;;;;;;;22.40;99.90;;;;;;5015499;28;20384;-80
2023/01/14 09:53:20;;;;;;;;;;;22.40;99.90;;;;;;5015279;28;19909;-75
2023/01/14 09:55:56;;;;;;;;;;;22.40;99.90;;;;;;5015788;28;19917;-80
2023/01/14 09:58:29;;;;;;;;;;;22.40;99.90;;;;;;5015521;28;19909;-79
2023/01/14 10:01:03;;;;;;;;;;;22.40;99.90;;;;;;5014838;28;19909;-80
2023/01/14 10:03:34;;;;;;;;;;;22.40;99.90;;;;;;5015335;28;20364;-81
2023/01/14 10:06:13;;;;;;;;;;;22.40;99.90;;;;;;5015447;28;19910;-81
2023/01/14 10:09:06;;;;;;;;;;;22.40;99.90;;;;;;5015306;28;19909;-81
2023/01/14 10:11:35;;;;;;;;;;;22.40;99.90;;;;;;5013501;28;19913;-80
2023/01/14 10:14:01;;;;;;;;;;;22.40;99.90;;;;;;5015357;28;19910;-81
2023/01/14 10:16:34;;;;;;;;;;;22.40;99.90;;;;;;5015085;28;19916;-80
2023/01/14 10:19:19;;;;;;;;;;;22.30;99.90;;;;;;5015114;28;19997;-79
2023/01/14 10:21:46;;;;;;;;;;;22.40;99.90;;;;;;5014914;28;19916;-78
2023/01/14 10:24:17;;;;;;;;;;;22.40;99.90;;;;;;5014788;28;19964;-80
2023/01/14 10:26:45;;;;;;;;;;;22.30;99.90;;;;;;5014955;28;19913;-75
2023/01/14 10:29:16;;;;;;;;;;;22.40;99.90;;;;;;5014925;28;20321;-77
2023/01/14 10:32:03;;;;;;;;;;;22.40;99.90;;;;;;5014747;28;19914;-76
2023/01/14 10:34:50;;;;;;;;;;;22.40;99.90;;;;;;5014765;28;19909;-78
2023/01/14 10:37:16;;;;;;;;;;;22.40;99.90;;;;;;5014202;28;19922;-78
2023/01/14 10:39:48;;;;;;;;;;;22.40;99.90;;;;;;5014430;28;20384;-80
2023/01/14 10:42:16;;;;;;;;;;;22.40;99.90;;;;;;5014769;28;19917;-79
2023/01/14 10:44:45;;;;;;;;;;;22.30;99.90;;;;;;5014744;28;19949;-80
2023/01/14 10:47:15;;;;;;;;;;;22.30;99.90;;;;;;5014312;28;19963;-68
2023/01/14 10:49:51;;;;;;;;;;;22.20;99.90;;;;;;5014356;28;19914;-74
2023/01/14 10:52:21;;;;;;;;;;;22.30;99.90;;;;;;5014477;28;19916;-75
2023/01/14 10:54:54;;;;;;;;;;;22.30;99.90;;;;;;5014369;28;20027;-78
2023/01/14 10:57:20;;;;;;;;;;;22.30;99.90;;;;;;5014257;28;20407;-80
2023/01/14 10:59:51;;;;;;;;;;;22.30;99.90;;;;;;5014112;28;19960;-78
2023/01/14 11:02:40;;;;;;;;;;;22.20;99.90;;;;;;5014152;28;19910;-80
2023/01/14 11:05:22;;;;;;;;;;;22.20;99.90;;;;;;5013098;28;19948;-79
2023/01/14 11:07:50;;;;;;;;;;;22.20;99.90;;;;;;5009276;28;19916;-77
2023/01/14 11:10:20;;;;;;;;;;;22.20;99.90;;;;;;5005899;28;19914;-77
2023/01/14 11:12:46;;;;;;;;;;;22.20;99.90;;;;;;5005612;28;19914;-77
2023/01/14 11:15:39;;;;;;;;;;;22.20;99.90;;;;;;5005180;28;20004;-78
2023/01/14 11:18:18;;;;;;;;;;;22.20;99.90;;;;;;5004537;28;19914;-79
2023/01/14 11:21:02;;;;;;;;;;;22.20;99.90;;;;;;5004727;28;19940;-79
2023/01/14 11:23:31;;;;;;;;;;;22.20;99.90;;;;;;5005041;28;19989;-73
2023/01/14 11:26:00;;;;;;;;;;;22.20;99.90;;;;;;5005390;28;19914;-71
2023/01/14 11:28:28;;;;;;;;;;;22.20;99.90;;;;;;5005390;28;20004;-76
2023/01/14 11:30:55;;;;;;;;;;;22.20;99.90;;;;;;5005401;28;19937;-75
2023/01/14 11:33:23;;;;;;;;;;;22.20;99.90;;;;;;5004591;28;20028;-72
2023/01/14 11:35:51;;;;;;;;;;;22.20;99.90;;;;;;5005204;28;19956;-74
2023/01/14 11:38:21;;;;;;;;;;;22.20;99.90;;;;;;5004976;28;19925;-78
2023/01/14 11:43:52;;;;;;;;;;;22.20;99.90;;;;;;5005320;28;20426;-80
2023/01/14 11:46:19;;;;;;;;;;;22.20;99.90;;;;;;5004724;28;20145;-67
2023/01/14 11:48:57;;;;;;;;;;;22.20;99.90;;;;;;5004946;28;20272;-70
2023/01/14 11:51:25;;;;;;;;;;;22.20;99.90;;;;;;5005015;28;19926;-66
2023/01/14 11:53:53;;;;;;;;;;;22.20;99.90;;;;;;5004967;28;19924;-77
2023/01/14 11:56:23;;;;;;;;;;;22.20;99.90;;;;;;5005183;28;19921;-77
2023/01/14 11:58:49;;;;;;;;;;;22.10;99.90;;;;;;5005259;28;19984;-72
2023/01/14 12:01:49;;;;;;;;;;;22.10;99.90;;;;;;5004409;28;20019;-76
2023/01/14 12:04:19;;;;;;;;;;;22.10;99.90;;;;;;4992677;28;20356;-78
2023/01/14 12:06:46;;;;;;;;;;;22.10;99.90;;;;;;5005157;28;19918;-79
2023/01/14 12:09:19;;;;;;;;;;;22.10;99.90;;;;;;5004477;28;19913;-75
2023/01/14 12:11:56;;;;;;;;;;;22.10;99.90;;;;;;5004794;28;19920;-67
2023/01/14 12:17:13;;;;;;;;;;;22.10;99.90;;;;;;5009106;28;20736;-74
2023/01/14 12:19:44;;;;;;;;;;;22.00;99.90;;;;;;5008878;28;20008;-65
2023/01/14 12:22:26;;;;;;;;;;;22.10;99.90;;;;;;5008912;28;20103;-67
2023/01/14 12:25:12;;;;;;;;;;;22.00;99.90;;;;;;5008870;28;20371;-71
2023/01/14 12:27:57;;;;;;;;;;;22.00;99.90;;;;;;5008445;28;19921;-78
2023/01/14 12:30:30;;;;;;;;;;;22.00;99.90;;;;;;5008627;28;19948;-69
2023/01/14 12:33:09;;;;;;;;;;;22.00;99.90;;;;;;5009329;28;19920;-72
2023/01/14 12:35:44;;;;;;;;;;;22.00;99.90;;;;;;5009032;28;19917;-72
2023/01/14 12:45:41;;;;;;;;;;;22.00;99.90;;;;;;5008830;28;19933;-70
2023/01/14 12:46:34;;;;;;;;;;;21.90;99.90;;;;;;5008988;28;19941;-73
2023/01/14 12:49:01;;;;;;;;;;;21.90;99.90;;;;;;5008297;28;19952;-68
2023/01/14 12:51:30;;;;;;;;;;;21.90;99.90;;;;;;5007857;28;19913;-67
2023/01/14 12:54:02;;;;;;;;;;;21.90;99.90;;;;;;5007997;28;19948;-77
2023/01/14 12:56:33;;;;;;;;;;;21.90;99.90;;;;;;5008100;28;20646;-76
2023/01/14 12:59:01;;;;;;;;;;;21.90;99.90;;;;;;5008135;28;19914;-69
2023/01/14 13:01:30;;;;;;;;;;;21.90;99.90;;;;;;5007369;28;19913;-64
2023/01/14 13:03:57;;;;;;;;;;;21.90;99.90;;;;;;5008022;28;19922;-71
2023/01/14 13:06:26;;;;;;;;;;;21.80;99.90;;;;;;5007654;28;19918;-72
2023/01/14 13:08:55;;;;;;;;;;;21.80;99.90;;;;;;5007643;28;20115;-69
2023/01/14 13:11:24;;;;;;;;;;;21.80;99.90;;;;;;5007448;28;20714;-69
2023/01/14 13:13:55;;;;;;;;;;;21.80;99.90;;;;;;5007324;28;19920;-80
2023/01/14 13:16:41;;;;;;;;;;;21.80;99.90;;;;;;5007990;28;19921;-78
2023/01/14 13:19:26;;;;;;;;;;;21.80;99.90;;;;;;5007595;28;19914;-69
2023/01/14 13:21:59;;;;;;;;;;;21.80;99.90;;;;;;5007402;28;19914;-77
2023/01/14 13:24:37;;;;;;;;;;;21.80;99.90;;;;;;5007440;28;19956;-78
2023/01/14 13:27:22;;;;;;;;;;;21.80;99.90;;;;;;5006764;28;20064;-77
2023/01/14 13:29:49;;;;;;;;;;;21.70;99.90;;;;;;5007583;28;20007;-69
2023/01/14 13:32:47;;;;;;;;;;;21.70;99.90;;;;;;5005680;28;19922;-75
2023/01/14 13:35:18;;;;;;;;;;;21.70;99.90;;;;;;4994753;28;19944;-79
2023/01/14 13:37:45;;;;;;;;;;;21.70;99.90;;;;;;5015607;28;20020;-67
2023/01/14 13:40:16;;;;;;;;;;;21.70;99.90;;;;;;5015536;28;20369;-79
2023/01/14 13:42:43;;;;;;;;;;;21.70;99.90;;;;;;5015844;28;19935;-79
2023/01/14 13:45:25;;;;;;;;;;;21.70;99.90;;;;;;5015928;28;19976;-70
2023/01/14 13:47:53;;;;;;;;;;;21.70;99.90;;;;;;5015896;28;20368;-79
2023/01/14 13:50:32;;;;;;;;;;;21.70;99.90;;;;;;5015566;28;20364;-76
2023/01/14 13:53:19;;;;;;;;;;;21.70;99.90;;;;;;5015440;28;20316;-79
2023/01/14 13:56:00;;;;;;;;;;;21.60;99.90;;;;;;5015303;28;19916;-67
2023/01/14 13:58:32;;;;;;;;;;;21.70;99.90;;;;;;5015673;28;20375;-69
2023/01/14 14:01:17;;;;;;;;;;;21.60;99.90;;;;;;5015232;28;20352;-69
2023/01/14 14:03:44;;;;;;;;;;;21.60;99.90;;;;;;5015488;28;20341;-68
2023/01/14 14:06:31;;;;;;;;;;;21.60;99.90;;;;;;5015523;28;19917;-65
2023/01/14 14:09:01;;;;;;;;;;;21.60;99.90;;;;;;5011623;28;19910;-68
2023/01/14 14:11:29;;;;;;;;;;;21.60;99.90;;;;;;5014742;28;19916;-67
2023/01/14 14:14:05;;;;;;;;;;;21.60;99.90;;;;;;5015362;28;19913;-65
2023/01/14 14:16:37;;;;;;;;;;;21.60;99.90;;;;;;5015175;28;20319;-65
2023/01/14 14:19:16;;;;;;;;;;;21.60;99.90;;;;;;5015292;28;19913;-65
2023/01/14 14:21:58;;;;;;;;;;;21.60;99.90;;;;;;5015263;28;19997;-67
2023/01/14 14:24:43;;;;;;;;;;;21.60;99.90;;;;;;5014983;28;19922;-64
2023/01/14 14:27:15;;;;;;;;;;;21.60;99.90;;;;;;5014946;28;20364;-68
2023/01/14 14:29:43;;;;;;;;;;;21.60;99.90;;;;;;5014713;28;19942;-66
2023/01/14 14:32:12;;;;;;;;;;;21.60;99.90;;;;;;5015015;28;19910;-75
2023/01/14 14:34:42;;;;;;;;;;;21.60;99.90;;;;;;5014846;28;19910;-69
2023/01/14 14:37:20;;;;;;;;;;;21.60;99.90;;;;;;5013827;28;19921;-71
2023/01/14 14:39:52;;;;;;;;;;;21.60;99.90;;;;;;5014133;28;20351;-64
2023/01/14 14:42:20;;;;;;;;;;;21.60;99.90;;;;;;5014952;28;19972;-80
2023/01/14 14:44:57;;;;;;;;;;;21.60;99.90;;;;;;5014752;28;19940;-65
2023/01/14 14:47:25;;;;;;;;;;;21.60;99.90;;;;;;5014575;28;19936;-65
2023/01/14 14:49:52;;;;;;;;;;;21.60;99.90;;;;;;5014327;28;19960;-71
2023/01/14 14:52:20;;;;;;;;;;;21.60;99.90;;;;;;5014472;28;20325;-75
2023/01/14 14:54:50;;;;;;;;;;;21.60;99.90;;;;;;5014587;28;19996;-72
2023/01/14 14:57:25;;;;;;;;;;;21.50;99.90;;;;;;5014354;28;19909;-65
2023/01/14 15:00:04;;;;;;;;;;;21.60;99.90;;;;;;5110982;27;19922;-65
2023/01/14 15:02:38;;;;;;;;;;;21.50;99.90;;;;;;5111312;28;19944;-68
2023/01/14 15:05:06;;;;;;;;;;;21.60;99.90;;;;;;5111340;28;19908;-64
2023/01/14 15:07:37;;;;;;;;;;;21.60;99.90;;;;;;5109652;28;19969;-75
2023/01/14 15:10:04;;;;;;;;;;;21.60;99.90;;;;;;5110893;28;19991;-70
2023/01/14 15:12:31;;;;;;;;;;;21.60;99.90;;;;;;5111267;28;20007;-67
2023/01/14 15:15:02;;;;;;;;;;;21.60;99.90;;;;;;5111033;28;20366;-74